createdAt,value
2018-05-27T00:00:21.423Z,101444.85
2018-05-27T00:02:48.810Z,101439.84
2018-05-27T00:05:16.235Z,101441.22
2018-05-27T00:07:43.693Z,101435.02
2018-05-27T00:10:11.168Z,101430.15
2018-05-27T00:12:38.602Z,101424.20
2018-05-27T00:15:06.011Z,101422.44
2018-05-27T00:17:33.427Z,101422.85
2018-05-27T00:20:00.895Z,101428.33
2018-05-27T00:22:28.332Z,101425.89
2018-05-27T00:24:55.725Z,101431.08
2018-05-27T00:27:23.141Z,101429.44
2018-05-27T00:29:50.598Z,101423.71
2018-05-27T00:32:18.017Z,101423.07
2018-05-27T00:34:45.513Z,101423.71
2018-05-27T00:37:12.909Z,101419.39
2018-05-27T00:39:40.318Z,101425.34
2018-05-27T00:42:07.802Z,101422.54
2018-05-27T00:44:35.209Z,101419.58
2018-05-27T00:47:02.605Z,101418.80
2018-05-27T00:49:30.045Z,101418.79
2018-05-27T00:51:57.444Z,101421.77
2018-05-27T00:54:24.841Z,101416.25
2018-05-27T00:56:52.306Z,101413.20
2018-05-27T00:59:19.674Z,101414.61
2018-05-27T01:01:47.146Z,101416.18
2018-05-27T01:04:14.542Z,101413.81
2018-05-27T01:06:42.022Z,101424.39
2018-05-27T01:09:09.410Z,101422.63
2018-05-27T01:11:36.892Z,101425.66
2018-05-27T01:14:04.286Z,101417.52
2018-05-27T01:16:31.677Z,101412.00
2018-05-27T01:18:59.068Z,101405.27
2018-05-27T01:21:26.601Z,101409.99
2018-05-27T01:23:54.001Z,101406.66
2018-05-27T01:26:21.498Z,101412.97
2018-05-27T01:28:48.997Z,101410.42
2018-05-27T01:31:16.501Z,101405.99
2018-05-27T01:33:43.889Z,101403.48
2018-05-27T01:36:11.290Z,101411.32
2018-05-27T01:38:38.800Z,101411.69
2018-05-27T01:41:06.213Z,101410.34
2018-05-27T01:43:33.669Z,101411.83
2018-05-27T01:46:01.065Z,101400.50
2018-05-27T01:48:28.465Z,101400.36
2018-05-27T01:50:55.891Z,101407.14
2018-05-27T01:53:23.277Z,101405.35
2018-05-27T01:55:50.665Z,101408.02
2018-05-27T01:58:18.053Z,101407.95
2018-05-27T02:00:45.453Z,101404.23
2018-05-27T02:03:12.859Z,101398.52
2018-05-27T02:05:40.254Z,101401.05
2018-05-27T02:08:07.646Z,101392.38
2018-05-27T02:10:35.058Z,101394.75
2018-05-27T02:13:02.525Z,101385.52
2018-05-27T02:15:29.917Z,101390.11
2018-05-27T02:17:57.337Z,101392.27
2018-05-27T02:20:24.729Z,101390.43
2018-05-27T02:22:52.160Z,101397.16
2018-05-27T02:25:19.532Z,101396.09
2018-05-27T02:27:46.939Z,101395.64
2018-05-27T02:30:14.335Z,101383.92
2018-05-27T02:32:41.768Z,101390.71
2018-05-27T02:35:09.224Z,101390.45
2018-05-27T02:37:36.639Z,101387.84
2018-05-27T02:40:04.043Z,101386.92
2018-05-27T02:42:31.445Z,101391.19
2018-05-27T02:44:58.889Z,101388.78
2018-05-27T02:47:26.305Z,101390.52
2018-05-27T02:49:53.706Z,101380.20
2018-05-27T02:52:21.833Z,101389.86
2018-05-27T02:54:49.321Z,101377.36
2018-05-27T02:57:16.720Z,101376.95
2018-05-27T02:59:44.130Z,101377.69
2018-05-27T03:02:11.525Z,101377.52
2018-05-27T03:04:38.918Z,101374.30
2018-05-27T03:07:06.323Z,101369.09
2018-05-27T03:09:33.751Z,101366.41
2018-05-27T03:12:01.132Z,101364.52
2018-05-27T03:14:28.550Z,101363.77
2018-05-27T03:16:55.967Z,101375.94
2018-05-27T03:19:23.349Z,101375.92
2018-05-27T03:21:50.746Z,101374.52
2018-05-27T03:24:18.128Z,101368.86
2018-05-27T03:26:45.535Z,101362.87
2018-05-27T03:29:12.955Z,101370.43
2018-05-27T03:31:40.385Z,101363.33
2018-05-27T03:34:07.770Z,101363.84
2018-05-27T03:36:35.177Z,101362.25
2018-05-27T03:39:02.573Z,101363.59
2018-05-27T03:41:30.077Z,101362.02
2018-05-27T03:43:57.453Z,101363.09
2018-05-27T03:46:24.841Z,101364.08
2018-05-27T03:48:52.314Z,101361.09
2018-05-27T03:51:19.722Z,101358.67
2018-05-27T03:53:47.130Z,101354.34
2018-05-27T03:56:14.543Z,101353.92
2018-05-27T03:58:41.940Z,101360.83
2018-05-27T04:01:09.373Z,101350.58
2018-05-27T04:03:36.856Z,101350.23
2018-05-27T04:06:16.089Z,101342.64
2018-05-27T04:08:43.572Z,101346.72
2018-05-27T04:11:10.975Z,101347.25
2018-05-27T04:13:38.389Z,101346.34
2018-05-27T04:16:06.113Z,101343.95
2018-05-27T04:18:33.508Z,101340.75
2018-05-27T04:21:00.900Z,101341.48
2018-05-27T04:23:28.305Z,101342.89
2018-05-27T04:25:55.704Z,101345.69
2018-05-27T04:28:23.295Z,101341.86
2018-05-27T04:30:50.682Z,101346.73
2018-05-27T04:33:18.085Z,101343.98
2018-05-27T04:35:45.578Z,101336.25
2018-05-27T04:38:13.065Z,101340.31
2018-05-27T04:40:40.463Z,101341.80
2018-05-27T04:43:07.841Z,101336.81
2018-05-27T04:45:35.240Z,101345.01
2018-05-27T04:48:02.660Z,101345.14
2018-05-27T04:50:30.050Z,101340.63
2018-05-27T04:52:57.529Z,101339.27
2018-05-27T04:55:25.010Z,101338.40
2018-05-27T04:57:52.440Z,101346.39
2018-05-27T05:00:19.861Z,101353.98
2018-05-27T05:02:47.269Z,101355.35
2018-05-27T05:05:14.709Z,101353.91
2018-05-27T05:07:42.100Z,101352.34
2018-05-27T05:10:09.537Z,101347.78
2018-05-27T05:12:36.941Z,101346.13
2018-05-27T05:15:04.349Z,101357.17
2018-05-27T05:17:31.801Z,101365.45
2018-05-27T05:19:59.258Z,101360.93
2018-05-27T05:22:26.766Z,101358.15
2018-05-27T05:24:54.165Z,101363.80
2018-05-27T05:27:21.629Z,101362.87
2018-05-27T05:29:49.035Z,101366.47
2018-05-27T05:32:16.535Z,101360.29
2018-05-27T05:34:44.002Z,101366.23
2018-05-27T05:37:11.458Z,101373.60
2018-05-27T05:39:38.878Z,101374.08
2018-05-27T05:42:06.290Z,101372.73
2018-05-27T05:44:33.698Z,101367.98
2018-05-27T05:47:01.109Z,101368.75
2018-05-27T05:49:28.510Z,101373.33
2018-05-27T05:51:55.971Z,101372.07
2018-05-27T05:54:23.365Z,101376.10
2018-05-27T05:56:50.839Z,101373.78
2018-05-27T05:59:18.237Z,101374.91
2018-05-27T06:01:45.637Z,101382.05
2018-05-27T06:04:13.038Z,101383.91
2018-05-27T06:06:40.440Z,101392.60
2018-05-27T06:09:07.848Z,101398.56
2018-05-27T06:11:35.244Z,101391.03
2018-05-27T06:14:02.700Z,101390.56
2018-05-27T06:16:30.086Z,101394.53
2018-05-27T06:18:57.518Z,101397.14
2018-05-27T06:21:24.980Z,101390.93
2018-05-27T06:23:52.429Z,101390.09
2018-05-27T06:26:19.881Z,101397.70
2018-05-27T06:28:47.304Z,101400.52
2018-05-27T06:31:14.701Z,101399.14
2018-05-27T06:33:42.104Z,101406.08
2018-05-27T06:36:09.506Z,101415.12
2018-05-27T06:38:36.960Z,101415.78
2018-05-27T06:41:04.389Z,101417.64
2018-05-27T06:43:32.005Z,101411.44
2018-05-27T06:45:59.425Z,101409.27
2018-05-27T06:48:26.816Z,101413.03
2018-05-27T06:50:54.230Z,101413.28
2018-05-27T06:53:21.735Z,101417.29
2018-05-27T06:55:49.149Z,101405.18
2018-05-27T06:58:16.545Z,101404.03
2018-05-27T07:00:43.949Z,101401.97
2018-05-27T07:03:11.411Z,101402.39
2018-05-27T07:05:38.812Z,101402.27
2018-05-27T07:08:06.197Z,101407.36
2018-05-27T07:10:33.597Z,101398.19
2018-05-27T07:13:02.967Z,101399.63
2018-05-27T07:15:30.384Z,101398.77
2018-05-27T07:17:57.785Z,101398.61
2018-05-27T07:20:25.177Z,101409.90
2018-05-27T07:22:52.656Z,101407.91
2018-05-27T07:25:20.084Z,101399.00
2018-05-27T07:27:47.542Z,101407.38
2018-05-27T07:30:15.835Z,101394.20
2018-05-27T07:32:43.225Z,101389.89
2018-05-27T07:35:10.639Z,101392.63
2018-05-27T07:37:38.088Z,101394.76
2018-05-27T07:40:05.577Z,101390.08
2018-05-27T07:42:32.966Z,101379.48
2018-05-27T07:45:00.485Z,101382.66
2018-05-27T07:47:27.877Z,101387.19
2018-05-27T07:49:55.293Z,101382.14
2018-05-27T07:52:22.684Z,101386.88
2018-05-27T07:54:50.101Z,101380.94
2018-05-27T07:57:17.484Z,101375.07
2018-05-27T07:59:44.893Z,101378.18
2018-05-27T08:02:12.312Z,101373.19
2018-05-27T08:04:39.735Z,101378.67
2018-05-27T08:07:07.172Z,101376.79
2018-05-27T08:09:34.577Z,101377.17
2018-05-27T08:12:02.091Z,101377.14
2018-05-27T08:14:29.505Z,101379.48
2018-05-27T08:16:56.993Z,101377.73
2018-05-27T08:19:24.402Z,101379.02
2018-05-27T08:21:51.934Z,101382.03
2018-05-27T08:24:19.318Z,101382.19
2018-05-27T08:26:46.853Z,101371.95
2018-05-27T08:29:14.280Z,101375.30
2018-05-27T08:31:41.717Z,101379.62
2018-05-27T08:34:09.105Z,101380.47
2018-05-27T08:36:36.570Z,101385.39
2018-05-27T08:39:03.988Z,101381.10
2018-05-27T08:41:31.484Z,101371.80
2018-05-27T08:43:58.868Z,101373.38
2018-05-27T08:46:26.265Z,101379.34
2018-05-27T08:48:53.723Z,101378.55
2018-05-27T08:51:21.111Z,101373.69
2018-05-27T08:53:48.504Z,101367.50
2018-05-27T08:56:15.905Z,101376.73
2018-05-27T08:58:43.296Z,101373.37
2018-05-27T09:01:10.784Z,101375.05
2018-05-27T09:03:38.156Z,101371.12
2018-05-27T09:06:05.537Z,101372.85
2018-05-27T09:08:32.945Z,101380.67
2018-05-27T09:11:00.345Z,101371.98
2018-05-27T09:13:27.760Z,101374.34
2018-05-27T09:15:55.164Z,101374.94
2018-05-27T09:18:22.582Z,101378.34
2018-05-27T09:20:49.999Z,101365.37
2018-05-27T09:23:17.508Z,101367.50
2018-05-27T09:25:45.058Z,101369.53
2018-05-27T09:28:12.432Z,101357.36
2018-05-27T09:30:39.843Z,101361.79
2018-05-27T09:33:07.237Z,101362.00
2018-05-27T09:35:34.640Z,101362.66
2018-05-27T09:38:02.061Z,101355.33
2018-05-27T09:40:29.458Z,101353.91
2018-05-27T09:42:56.938Z,101349.70
2018-05-27T09:45:24.484Z,101347.97
2018-05-27T09:47:51.809Z,101346.66
2018-05-27T09:50:19.206Z,101345.06
2018-05-27T09:52:46.669Z,101345.76
2018-05-27T09:55:14.053Z,101343.08
2018-05-27T09:57:41.481Z,101342.78
2018-05-27T10:00:08.902Z,101345.74
2018-05-27T10:02:36.395Z,101347.64
2018-05-27T10:05:03.786Z,101347.31
2018-05-27T10:07:31.208Z,101339.59
2018-05-27T10:09:58.607Z,101336.88
2018-05-27T10:12:26.039Z,101334.81
2018-05-27T10:14:53.492Z,101329.41
2018-05-27T10:17:21.152Z,101325.94
2018-05-27T10:19:48.553Z,101326.62
2018-05-27T10:22:15.984Z,101326.41
2018-05-27T10:24:43.385Z,101330.63
2018-05-27T10:27:10.787Z,101323.49
2018-05-27T10:29:38.226Z,101324.09
2018-05-27T10:32:05.626Z,101320.55
2018-05-27T10:34:33.124Z,101321.62
2018-05-27T10:37:00.544Z,101322.58
2018-05-27T10:39:28.015Z,101315.33
2018-05-27T10:41:55.413Z,101314.33
2018-05-27T10:44:22.850Z,101310.77
2018-05-27T10:46:50.256Z,101314.81
2018-05-27T10:49:17.750Z,101311.87
2018-05-27T10:51:45.209Z,101311.27
2018-05-27T10:54:12.601Z,101309.23
2018-05-27T10:56:40.021Z,101302.48
2018-05-27T10:59:07.495Z,101296.38
2018-05-27T11:01:34.916Z,101293.78
2018-05-27T11:04:02.513Z,101294.24
2018-05-27T11:06:29.972Z,101291.64
2018-05-27T11:08:57.359Z,101290.18
2018-05-27T11:11:24.770Z,101282.07
2018-05-27T11:13:52.249Z,101270.48
2018-05-27T11:16:19.774Z,101271.20
2018-05-27T11:18:47.186Z,101274.82
2018-05-27T11:21:14.594Z,101263.56
2018-05-27T11:23:41.985Z,101257.41
2018-05-27T11:26:09.417Z,101260.47
2018-05-27T11:28:36.808Z,101261.27
2018-05-27T11:31:04.327Z,101260.33
2018-05-27T11:33:31.734Z,101250.97
2018-05-27T11:35:59.122Z,101255.40
2018-05-27T11:38:26.613Z,101239.55
2018-05-27T11:40:54.000Z,101250.07
2018-05-27T11:43:21.400Z,101244.59
2018-05-27T11:45:48.990Z,101237.59
2018-05-27T11:48:16.430Z,101230.33
2018-05-27T11:50:43.853Z,101234.48
2018-05-27T11:53:11.251Z,101226.51
2018-05-27T11:55:38.641Z,101228.27
2018-05-27T11:58:06.117Z,101215.66
2018-05-27T12:00:33.517Z,101208.77
2018-05-27T12:03:01.026Z,101218.09
2018-05-27T12:05:28.417Z,101219.30
2018-05-27T12:07:55.821Z,101206.56
2018-05-27T12:10:23.293Z,101198.29
2018-05-27T12:12:50.759Z,101194.55
2018-05-27T12:15:18.152Z,101192.28
2018-05-27T12:17:45.614Z,101187.57
2018-05-27T12:20:13.108Z,101188.57
2018-05-27T12:22:40.565Z,101179.32
2018-05-27T12:25:07.997Z,101170.95
2018-05-27T12:27:35.488Z,101170.77
2018-05-27T12:30:03.834Z,101169.64
2018-05-27T12:32:31.243Z,101169.34
2018-05-27T12:34:58.708Z,101171.38
2018-05-27T12:37:26.113Z,101165.23
2018-05-27T12:39:53.509Z,101159.17
2018-05-27T12:42:20.933Z,101158.20
2018-05-27T12:44:48.409Z,101158.16
2018-05-27T12:47:15.837Z,101154.70
2018-05-27T12:49:43.362Z,101161.44
2018-05-27T12:52:10.800Z,101159.18
2018-05-27T12:54:38.205Z,101153.66
2018-05-27T12:57:05.601Z,101149.97
2018-05-27T12:59:33.085Z,101151.63
2018-05-27T13:02:00.488Z,101150.82
2018-05-27T13:04:27.969Z,101153.38
2018-05-27T13:06:55.388Z,101152.36
2018-05-27T13:09:22.765Z,101148.23
2018-05-27T13:11:50.794Z,101146.03
2018-05-27T13:14:18.186Z,101142.50
2018-05-27T13:16:45.692Z,101136.43
2018-05-27T13:19:13.017Z,101142.27
2018-05-27T13:21:40.413Z,101129.22
2018-05-27T13:24:07.805Z,101123.61
2018-05-27T13:26:35.297Z,101122.72
2018-05-27T13:29:02.721Z,101114.92
2018-05-27T13:31:30.146Z,101114.87
2018-05-27T13:33:57.578Z,101112.19
2018-05-27T13:36:24.979Z,101118.45
2018-05-27T13:38:52.364Z,101114.73
2018-05-27T13:41:19.762Z,101108.86
2018-05-27T13:43:47.182Z,101104.09
2018-05-27T13:46:14.664Z,101102.91
2018-05-27T13:48:42.101Z,101106.28
2018-05-27T13:51:09.575Z,101102.45
2018-05-27T13:53:36.969Z,101098.22
2018-05-27T13:56:04.412Z,101099.49
2018-05-27T13:58:31.830Z,101091.41
2018-05-27T14:00:59.304Z,101085.97
2018-05-27T14:03:26.749Z,101082.70
2018-05-27T14:05:54.134Z,101091.69
2018-05-27T14:08:21.540Z,101096.40
2018-05-27T14:10:48.950Z,101088.70
2018-05-27T14:13:16.386Z,101075.32
2018-05-27T14:15:43.769Z,101082.30
2018-05-27T14:18:11.191Z,101082.89
2018-05-27T14:20:38.660Z,101080.92
2018-05-27T14:23:06.065Z,101083.59
2018-05-27T14:25:33.561Z,101081.80
2018-05-27T14:28:00.945Z,101080.16
2018-05-27T14:30:28.366Z,101075.43
2018-05-27T14:32:55.826Z,101072.61
2018-05-27T14:35:23.221Z,101071.89
2018-05-27T14:37:50.645Z,101068.30
2018-05-27T14:40:18.113Z,101078.98
2018-05-27T14:42:45.569Z,101072.98
2018-05-27T14:45:12.949Z,101070.67
2018-05-27T14:47:40.345Z,101076.37
2018-05-27T14:50:07.745Z,101075.05
2018-05-27T14:52:35.177Z,101072.52
2018-05-27T14:55:02.605Z,101072.81
2018-05-27T14:57:30.100Z,101068.00
2018-05-27T14:59:57.865Z,101074.39
2018-05-27T15:02:25.214Z,101075.44
2018-05-27T15:04:52.609Z,101061.60
2018-05-27T15:07:20.015Z,101058.54
2018-05-27T15:09:47.478Z,101057.86
2018-05-27T15:12:15.008Z,101053.97
2018-05-27T15:14:42.405Z,101047.41
2018-05-27T15:17:09.785Z,101053.59
2018-05-27T15:19:37.192Z,101048.56
2018-05-27T15:22:04.601Z,101046.72
2018-05-27T15:24:32.023Z,101047.49
2018-05-27T15:26:59.483Z,101049.81
2018-05-27T15:29:26.942Z,101043.92
2018-05-27T15:31:54.373Z,101043.23
2018-05-27T15:34:21.775Z,101045.53
2018-05-27T15:36:49.156Z,101043.19
2018-05-27T15:39:16.562Z,101037.02
2018-05-27T15:41:43.949Z,101045.12
2018-05-27T15:44:11.358Z,101045.21
2018-05-27T15:46:38.858Z,101041.23
2018-05-27T15:49:06.265Z,101037.66
2018-05-27T15:51:33.676Z,101039.53
2018-05-27T15:54:01.104Z,101039.57
2018-05-27T15:56:28.570Z,101042.37
2018-05-27T15:58:55.985Z,101044.52
2018-05-27T16:01:23.478Z,101037.63
2018-05-27T16:03:50.899Z,101045.38
2018-05-27T16:06:18.365Z,101033.44
2018-05-27T16:08:45.824Z,101032.41
2018-05-27T16:11:13.237Z,101032.52
2018-05-27T16:13:40.735Z,101035.23
2018-05-27T16:16:08.197Z,101036.34
2018-05-27T16:18:35.601Z,101034.17
2018-05-27T16:21:02.997Z,101039.91
2018-05-27T16:23:30.446Z,101038.84
2018-05-27T16:25:57.840Z,101046.34
2018-05-27T16:28:25.253Z,101035.88
2018-05-27T16:30:52.738Z,101040.48
2018-05-27T16:33:20.132Z,101030.36
2018-05-27T16:35:47.533Z,101033.16
2018-05-27T16:38:14.927Z,101030.72
2018-05-27T16:40:42.367Z,101021.20
2018-05-27T16:43:09.748Z,101016.63
2018-05-27T16:45:37.270Z,101010.08
2018-05-27T16:48:04.718Z,101012.73
2018-05-27T16:50:32.138Z,101005.63
2018-05-27T16:52:59.648Z,101007.54
2018-05-27T16:55:27.083Z,101009.82
2018-05-27T16:57:54.469Z,101010.50
2018-05-27T17:00:21.915Z,101009.33
2018-05-27T17:02:49.399Z,101006.42
2018-05-27T17:05:16.796Z,101006.13
2018-05-27T17:07:44.272Z,101002.87
2018-05-27T17:10:11.639Z,101002.08
2018-05-27T17:12:39.133Z,101004.11
2018-05-27T17:15:06.533Z,101007.74
2018-05-27T17:17:33.923Z,101005.44
2018-05-27T17:20:01.334Z,101008.63
2018-05-27T17:22:28.735Z,101008.63
2018-05-27T17:24:56.120Z,101013.05
2018-05-27T17:27:23.528Z,101014.31
2018-05-27T17:29:50.937Z,101004.83
2018-05-27T17:32:18.375Z,101003.25
2018-05-27T17:34:45.812Z,101005.20
2018-05-27T17:37:13.261Z,101004.98
2018-05-27T17:39:40.725Z,101007.63
2018-05-27T17:42:08.129Z,101014.00
2018-05-27T17:44:35.546Z,101020.84
2018-05-27T17:47:03.001Z,101024.20
2018-05-27T17:49:30.381Z,101027.26
2018-05-27T17:51:57.776Z,101025.75
2018-05-27T17:54:25.339Z,101026.51
2018-05-27T17:56:52.726Z,101031.83
2018-05-27T17:59:20.114Z,101028.28
2018-05-27T18:01:47.653Z,101036.04
2018-05-27T18:04:15.090Z,101030.33
2018-05-27T18:06:42.444Z,101029.08
2018-05-27T18:09:09.829Z,101032.73
2018-05-27T18:11:37.256Z,101028.50
2018-05-27T18:14:04.644Z,101035.98
2018-05-27T18:16:32.049Z,101033.86
2018-05-27T18:18:59.529Z,101038.95
2018-05-27T18:21:26.988Z,101032.56
2018-05-27T18:23:54.495Z,101031.16
2018-05-27T18:26:21.837Z,101036.93
2018-05-27T18:28:49.469Z,101035.45
2018-05-27T18:31:16.877Z,101031.98
2018-05-27T18:33:44.265Z,101024.23
2018-05-27T18:36:11.757Z,101024.23
2018-05-27T18:38:39.192Z,101016.30
2018-05-27T18:41:06.614Z,101016.36
2018-05-27T18:43:34.002Z,101011.81
2018-05-27T18:46:01.393Z,101005.78
2018-05-27T18:48:28.791Z,101005.12
2018-05-27T18:50:56.197Z,100993.91
2018-05-27T18:53:23.640Z,100991.95
2018-05-27T18:55:50.993Z,100994.00
2018-05-27T18:58:18.443Z,100996.73
2018-05-27T19:00:45.898Z,100996.08
2018-05-27T19:03:13.301Z,100997.82
2018-05-27T19:05:40.714Z,100999.13
2018-05-27T19:08:08.103Z,101002.51
2018-05-27T19:10:35.505Z,101004.81
2018-05-27T19:13:02.964Z,101005.23
2018-05-27T19:15:30.304Z,101005.92
2018-05-27T19:17:57.757Z,101012.06
2018-05-27T19:20:25.162Z,101015.19
2018-05-27T19:22:53.460Z,101020.82
2018-05-27T19:25:20.832Z,101025.00
2018-05-27T19:27:48.354Z,101037.08
2018-05-27T19:30:15.740Z,101040.03
2018-05-27T19:32:43.157Z,101050.52
2018-05-27T19:35:10.553Z,101045.17
2018-05-27T19:37:37.949Z,101056.38
2018-05-27T19:40:05.348Z,101067.14
2018-05-27T19:42:32.740Z,101077.28
2018-05-27T19:45:00.160Z,101074.55
2018-05-27T19:47:27.594Z,101073.06
2018-05-27T19:49:54.989Z,101072.39
2018-05-27T19:52:22.405Z,101075.86
2018-05-27T19:54:49.842Z,101079.18
2018-05-27T19:57:17.213Z,101087.33
2018-05-27T19:59:44.686Z,101079.94
2018-05-27T20:02:12.143Z,101091.37
2018-05-27T20:04:39.585Z,101093.84
2018-05-27T20:07:07.040Z,101092.17
2018-05-27T20:09:34.446Z,101087.70
2018-05-27T20:12:01.864Z,101086.76
2018-05-27T20:14:29.241Z,101090.73
2018-05-27T20:16:56.657Z,101081.02
2018-05-27T20:19:24.052Z,101089.11
2018-05-27T20:21:51.445Z,101078.42
2018-05-27T20:24:18.856Z,101078.42
2018-05-27T20:26:46.273Z,101073.01
2018-05-27T20:29:13.773Z,101071.42
2018-05-27T20:31:41.200Z,101077.85
2018-05-27T20:34:08.584Z,101072.52
2018-05-27T20:36:36.020Z,101071.11
2018-05-27T20:39:03.416Z,101070.83
2018-05-27T20:41:30.818Z,101075.41
2018-05-27T20:43:58.228Z,101076.67
2018-05-27T20:46:25.647Z,101076.33
2018-05-27T20:48:53.101Z,101079.36
2018-05-27T20:51:20.486Z,101082.72
2018-05-27T20:53:47.929Z,101084.08
2018-05-27T20:56:15.349Z,101086.45
2018-05-27T20:58:42.825Z,101089.64
2018-05-27T21:01:10.213Z,101086.52
2018-05-27T21:03:37.616Z,101092.83
2018-05-27T21:06:05.008Z,101095.95
2018-05-27T21:08:32.433Z,101089.98
2018-05-27T21:10:59.841Z,101093.50
2018-05-27T21:13:27.266Z,101096.70
2018-05-27T21:15:54.729Z,101100.59
2018-05-27T21:18:22.131Z,101106.51
2018-05-27T21:20:49.525Z,101101.95
2018-05-27T21:23:17.009Z,101100.16
2018-05-27T21:25:44.426Z,101094.28
2018-05-27T21:28:11.828Z,101097.30
2018-05-27T21:30:39.236Z,101095.53
2018-05-27T21:33:06.733Z,101095.53
2018-05-27T21:35:34.133Z,101102.34
2018-05-27T21:38:01.636Z,101105.72
2018-05-27T21:40:29.036Z,101101.13
2018-05-27T21:42:56.464Z,101109.82
2018-05-27T21:45:23.904Z,101114.73
2018-05-27T21:47:51.293Z,101105.91
2018-05-27T21:50:18.715Z,101112.51
2018-05-27T21:52:46.108Z,101118.59
2018-05-27T21:55:13.526Z,101118.16
2018-05-27T21:57:40.917Z,101118.26
2018-05-27T22:00:08.317Z,101120.19
2018-05-27T22:02:35.802Z,101131.52
2018-05-27T22:05:03.193Z,101124.83
2018-05-27T22:07:30.610Z,101129.23
2018-05-27T22:09:58.008Z,101134.75
2018-05-27T22:12:25.396Z,101137.15
2018-05-27T22:14:52.809Z,101140.82
2018-05-27T22:17:20.243Z,101151.89
2018-05-27T22:19:47.689Z,101146.05
2018-05-27T22:22:15.093Z,101147.83
2018-05-27T22:24:42.480Z,101143.02
2018-05-27T22:27:09.980Z,101140.66
2018-05-27T22:29:37.424Z,101140.89
2018-05-27T22:32:04.889Z,101142.23
2018-05-27T22:34:32.309Z,101141.82
2018-05-27T22:36:59.694Z,101134.51
2018-05-27T22:39:27.102Z,101127.70
2018-05-27T22:41:54.599Z,101134.80
2018-05-27T22:44:21.998Z,101132.16
2018-05-27T22:46:49.387Z,101124.86
2018-05-27T22:49:16.794Z,101122.70
2018-05-27T22:51:44.193Z,101119.38
2018-05-27T22:54:11.625Z,101125.91
2018-05-27T22:56:39.008Z,101116.59
2018-05-27T22:59:06.409Z,101118.94
2018-05-27T23:01:33.848Z,101116.75
2018-05-27T23:04:01.245Z,101124.33
2018-05-27T23:06:28.674Z,101124.91
2018-05-27T23:08:56.129Z,101121.16
2018-05-27T23:11:23.517Z,101132.84
2018-05-27T23:13:50.971Z,101123.17
2018-05-27T23:16:18.440Z,101132.36
2018-05-27T23:18:45.861Z,101132.44
2018-05-27T23:21:13.253Z,101130.50
2018-05-27T23:23:41.293Z,101125.19
2018-05-27T23:26:08.682Z,101125.23
2018-05-27T23:28:36.091Z,101126.92
2018-05-27T23:31:03.476Z,101128.72
2018-05-27T23:33:30.890Z,101126.09
2018-05-27T23:35:58.382Z,101127.91
2018-05-27T23:38:25.774Z,101127.77
2018-05-27T23:40:53.196Z,101130.89
2018-05-27T23:43:20.637Z,101124.05
2018-05-27T23:45:48.029Z,101119.47
2018-05-27T23:48:15.464Z,101117.77
2018-05-27T23:50:42.864Z,101113.53
2018-05-27T23:53:10.257Z,101113.53
2018-05-27T23:55:37.713Z,101113.68
2018-05-27T23:58:05.105Z,101110.20
